Share

Barranquilla, Colombia

Ernesto Cortissoz (SKBQ) Alt 98 ft | 10.88 °N, 74.78 °W | Change Station

Current weather conditions updated 42 minutes ago

Clear
Despejado
81 ° F
Sensación térmica 87 ° F
N
8
Viento Variable Viento desde NNE
Amanecer 5:45 AM
Atardecer 6:10 PM
Luna Gibosa menguante

Mañana se prevé una temperatura muy similar a la de hoy. Tormentas dispersas..

Presión 29.84 pul
Visibilidad -9999.0 Millas
Nubes
Índice de calor 87 ° F
Punto de rocío 77 ° F
Humedad 89%
Precipitaciones 0.00 pul
Espesor de la nieve No disponible.
UV No disponible.
Polen No disponible.
Calidad del aire No disponible.
Flu Activity No disponible.
METAR SKBQ 210400Z 02007KT CAVOK 27/25 A2984

More Conditions Fewer Conditions

Presión 29.84 pul
Visibilidad -9999.0 Millas
Nubes
Índice de calor 87 ° F
Punto de rocío 77 ° F
Humedad 89%
Precipitaciones 0.00 pul
Espesor de la nieve No disponible.
UV No disponible.
Polen No disponible.
Calidad del aire No disponible.
Flu Activity No disponible.
METAR SKBQ 210400Z 02007KT CAVOK 27/25 A2984

More Conditions Fewer Conditions

10-Day Weather Forecast

Almanac

Astronomía

Apr. 20, 2014 Salida Puesta
Hora real 5:45 AM COT 6:10 PM COT
Crepúsculo civil 5:23 AM COT 6:32 PM COT
Crepúsculo náutico 4:58 AM COT 6:57 PM COT
Crepúsculo astronómico 4:33 AM COT 7:22 PM COT
Luna 11:22 PM COT (4/20) 10:23 AM COT (4/20)
Horas de luz 13h 08m
Horas de luz
12h 25m
Tomorrow will be 0m 33s longer.
Gibosa menguante, 63% of the Moon is Illuminated
Abr 21
Gibosa menguante
Abr 22
Cuarto menguante
Abr 29
Nueva
May 6
Cuarto creciente
May 14
Luna llena

Extremos de hoy

Máximos del país Bajas del país

Community

  • Snowy Robin
    Snowy Robin
  • Sun Pillar and Geese
    Sun Pillar and Geese
  • Showers on the Way
    Showers on the Way
  • Easter Morning Fog
    Easter Morning Fog
  • Easter Dance
    Easter Dance

WunderPhotos

Upload Photos

1,703,559 ¡fotos cargadas!

WunderBlogs® & News

Nearby

Calidad del aire

Not available.

Grosos de nieve

Not available.

Temperaturas de aguas costeras

Lugar Temperatura
Sin partes meteorológicos de las estaciones

Actividad de terremotos

Ciudad Distance Mag. Tiempo y dato
No hay informes recientes de la actividad sísmica.
Magnitud mínima muestra es 2,5.

Estaciones meteorológicas cercanas

No hay estaciones meteorológicas personales en esta zona.

What do you think?

We're not finished. Please let us know what you like, what you don't like, and what you are still missing.